Time;durP1;ratioP1;P1;durP2;ratioP2;P2;SDS_P1;SDS_P2;PMS_P1;PMS_P2;Temp;Humidity;BMP_temperature;BMP_pressure;BME280_temperature;BME280_humidity;BME280_pressure;Samples;Min_cycle;Max_cycle;Signal;HPM_P1;HPM_P2
2022/03/08 00:00:22;;;;;;;11.60;6.38;;;;;;;;;;4895951;29;21460;-67
2022/03/08 00:02:49;;;;;;;10.82;6.05;;;;;;;;;;4916078;29;20071;-67
2022/03/08 00:05:17;;;;;;;12.02;5.43;;;;;;;;;;4918325;29;20059;-67
2022/03/08 00:07:46;;;;;;;12.15;5.40;;;;;;;;;;4912338;29;20052;-67
2022/03/08 00:10:14;;;;;;;8.52;5.07;;;;;;;;;;4916859;29;20486;-67
2022/03/08 00:12:41;;;;;;;9.82;6.03;;;;;;;;;;4899612;29;20060;-67
2022/03/08 00:15:10;;;;;;;11.52;5.68;;;;;;;;;;4914063;29;20499;-67
2022/03/08 00:17:38;;;;;;;9.48;5.68;;;;;;;;;;4894461;29;20060;-67
2022/03/08 00:20:08;;;;;;;10.82;5.75;;;;;;;;;;4894699;29;20107;-67
2022/03/08 00:22:35;;;;;;;9.77;5.38;;;;;;;;;;4912723;29;20606;-68
2022/03/08 00:25:03;;;;;;;11.98;5.57;;;;;;;;;;4897208;29;20696;-68
2022/03/08 00:27:30;;;;;;;11.95;5.60;;;;;;;;;;4917239;29;20052;-67
2022/03/08 00:29:58;;;;;;;13.02;6.22;;;;;;;;;;4914031;29;20501;-67
2022/03/08 00:32:25;;;;;;;9.88;5.15;;;;;;;;;;4916169;29;20388;-68
2022/03/08 00:34:54;;;;;;;8.40;5.75;;;;;;;;;;4893509;29;20162;-67
2022/03/08 00:37:21;;;;;;;9.38;5.45;;;;;;;;;;4916202;29;20051;-67
2022/03/08 00:39:48;;;;;;;9.27;5.95;;;;;;;;;;4895613;29;20056;-67
2022/03/08 00:42:16;;;;;;;10.00;5.90;;;;;;;;;;4918923;29;20051;-67
2022/03/08 00:44:44;;;;;;;11.38;6.55;;;;;;;;;;4896744;29;20074;-67
2022/03/08 00:47:11;;;;;;;13.80;6.70;;;;;;;;;;4917674;29;20064;-67
2022/03/08 00:49:40;;;;;;;10.43;6.63;;;;;;;;;;4895678;29;20068;-67
2022/03/08 00:52:09;;;;;;;11.88;6.45;;;;;;;;;;4919427;29;20116;-67
2022/03/08 00:54:36;;;;;;;10.43;5.72;;;;;;;;;;4915689;29;20426;-67
2022/03/08 00:57:04;;;;;;;11.27;5.57;;;;;;;;;;4918456;29;20127;-67
2022/03/08 00:59:31;;;;;;;10.25;5.35;;;;;;;;;;4893931;29;20051;-67
2022/03/08 01:01:59;;;;;;;11.32;5.75;;;;;;;;;;4894833;29;20060;-67
2022/03/08 01:04:26;;;;;;;12.05;5.57;;;;;;;;;;4904259;29;20060;-67
2022/03/08 01:06:55;;;;;;;14.13;6.10;;;;;;;;;;4897765;29;20080;-67
2022/03/08 01:09:24;;;;;;;10.65;6.10;;;;;;;;;;4919217;29;20056;-67
2022/03/08 01:11:51;;;;;;;11.75;6.35;;;;;;;;;;4897682;29;20056;-67
2022/03/08 01:14:18;;;;;;;12.07;5.70;;;;;;;;;;4914894;29;20115;-67
2022/03/08 01:16:46;;;;;;;15.73;6.82;;;;;;;;;;4921882;29;20059;-67
2022/03/08 01:19:13;;;;;;;8.75;5.45;;;;;;;;;;4898701;29;20506;-67
2022/03/08 01:21:40;;;;;;;10.60;6.35;;;;;;;;;;4917832;29;20052;-67
2022/03/08 01:24:08;;;;;;;10.20;5.88;;;;;;;;;;4903741;29;20071;-67
2022/03/08 01:26:36;;;;;;;10.05;6.15;;;;;;;;;;4898266;29;20065;-67
2022/03/08 01:29:04;;;;;;;11.02;6.10;;;;;;;;;;4898811;29;20075;-67
2022/03/08 01:31:31;;;;;;;12.35;6.53;;;;;;;;;;4900381;29;20141;-67
2022/03/08 01:33:58;;;;;;;13.30;6.40;;;;;;;;;;4920477;29;20071;-67
2022/03/08 01:36:27;;;;;;;8.70;5.90;;;;;;;;;;4902050;29;20059;-67
2022/03/08 01:38:54;;;;;;;9.15;5.72;;;;;;;;;;4916885;29;20203;-67
2022/03/08 01:41:21;;;;;;;10.93;6.30;;;;;;;;;;4919551;29;20443;-67
2022/03/08 01:43:50;;;;;;;10.27;6.22;;;;;;;;;;4916268;29;20067;-67
2022/03/08 01:46:17;;;;;;;9.80;6.03;;;;;;;;;;4919990;29;20059;-67
2022/03/08 01:48:45;;;;;;;11.35;6.22;;;;;;;;;;4917838;29;20096;-67
2022/03/08 01:51:13;;;;;;;9.65;5.97;;;;;;;;;;4916943;29;20705;-67
2022/03/08 01:53:41;;;;;;;10.55;6.50;;;;;;;;;;4914747;29;20043;-67
2022/03/08 01:56:08;;;;;;;9.82;5.93;;;;;;;;;;4899958;29;20920;-67
2022/03/08 01:58:36;;;;;;;17.55;6.85;;;;;;;;;;4900394;29;20139;-67
2022/03/08 02:01:05;;;;;;;15.05;6.28;;;;;;;;;;4898610;29;20074;-66
2022/03/08 02:03:32;;;;;;;11.52;5.97;;;;;;;;;;4917603;29;20063;-66
2022/03/08 02:05:59;;;;;;;11.30;6.40;;;;;;;;;;4920390;29;20052;-66
2022/03/08 02:08:27;;;;;;;11.70;5.95;;;;;;;;;;4895184;29;20059;-66
2022/03/08 02:10:54;;;;;;;12.63;7.18;;;;;;;;;;4898172;29;20149;-66
2022/03/08 02:13:22;;;;;;;12.05;6.43;;;;;;;;;;4898830;29;20064;-66
2022/03/08 02:15:50;;;;;;;16.27;6.70;;;;;;;;;;4898796;29;20051;-68
2022/03/08 02:18:18;;;;;;;16.67;7.15;;;;;;;;;;4917482;29;20553;-67
2022/03/08 02:20:46;;;;;;;10.07;6.47;;;;;;;;;;4901546;29;20063;-68
2022/03/08 02:23:15;;;;;;;9.90;6.03;;;;;;;;;;4897704;29;20056;-67
2022/03/08 02:25:42;;;;;;;14.32;6.97;;;;;;;;;;4901956;29;20048;-67
2022/03/08 02:28:10;;;;;;;15.13;6.53;;;;;;;;;;4896050;29;20091;-67
2022/03/08 02:30:37;;;;;;;10.77;5.88;;;;;;;;;;4899801;29;20075;-67
2022/03/08 02:33:04;;;;;;;10.63;6.50;;;;;;;;;;4912158;29;20637;-67
2022/03/08 02:35:32;;;;;;;11.88;6.80;;;;;;;;;;4911025;29;20492;-67
2022/03/08 02:38:00;;;;;;;11.23;6.75;;;;;;;;;;4915158;29;20060;-67
2022/03/08 02:40:30;;;;;;;9.68;6.20;;;;;;;;;;4898601;29;20063;-67
2022/03/08 02:42:57;;;;;;;11.20;6.40;;;;;;;;;;4896852;29;20115;-67
2022/03/08 02:45:25;;;;;;;10.50;6.32;;;;;;;;;;4917552;29;20059;-67
2022/03/08 02:47:53;;;;;;;11.68;6.78;;;;;;;;;;4902542;29;20386;-67
2022/03/08 02:50:20;;;;;;;13.13;6.95;;;;;;;;;;4898431;29;20052;-67
2022/03/08 02:52:51;;;;;;;11.63;6.70;;;;;;;;;;4896330;29;20067;-67
2022/03/08 02:55:19;;;;;;;13.27;7.05;;;;;;;;;;4914896;29;20091;-67
2022/03/08 02:57:48;;;;;;;12.82;6.65;;;;;;;;;;4914102;29;20138;-67
2022/03/08 03:00:16;;;;;;;12.98;6.95;;;;;;;;;;4894371;29;20121;-67
2022/03/08 03:02:44;;;;;;;13.07;6.72;;;;;;;;;;4895774;29;20052;-67
2022/03/08 03:05:11;;;;;;;14.07;6.72;;;;;;;;;;4915422;29;20054;-67
2022/03/08 03:07:39;;;;;;;13.23;6.80;;;;;;;;;;4911730;29;20062;-68
2022/03/08 03:10:07;;;;;;;12.00;6.97;;;;;;;;;;4911585;29;20055;-67
2022/03/08 03:12:34;;;;;;;15.32;6.93;;;;;;;;;;4917791;29;21622;-67
2022/03/08 03:15:04;;;;;;;13.93;6.88;;;;;;;;;;4900919;29;20467;-67
2022/03/08 03:17:34;;;;;;;11.98;6.63;;;;;;;;;;4895316;29;20059;-67
2022/03/08 03:20:02;;;;;;;12.45;7.35;;;;;;;;;;4898349;29;20483;-67
2022/03/08 03:22:29;;;;;;;11.82;6.70;;;;;;;;;;4908689;29;20055;-67
2022/03/08 03:24:56;;;;;;;12.00;7.40;;;;;;;;;;4912748;29;20066;-67
2022/03/08 03:27:23;;;;;;;14.05;7.78;;;;;;;;;;4894115;29;20063;-67
2022/03/08 03:29:51;;;;;;;15.00;8.23;;;;;;;;;;4902357;29;20066;-67
2022/03/08 03:32:20;;;;;;;13.43;7.25;;;;;;;;;;4895358;29;20138;-67
2022/03/08 03:34:47;;;;;;;12.82;7.40;;;;;;;;;;4898356;29;20156;-67
2022/03/08 03:37:14;;;;;;;12.45;7.45;;;;;;;;;;4914548;29;20066;-67
2022/03/08 03:39:41;;;;;;;12.02;7.32;;;;;;;;;;4897006;29;20044;-67
2022/03/08 03:42:09;;;;;;;16.02;7.10;;;;;;;;;;4898975;29;20681;-67
2022/03/08 03:44:36;;;;;;;12.00;7.40;;;;;;;;;;4915404;29;20605;-67
2022/03/08 03:47:03;;;;;;;12.90;7.95;;;;;;;;;;4894958;29;20521;-67
2022/03/08 03:49:32;;;;;;;16.98;8.50;;;;;;;;;;4901672;29;20047;-67
2022/03/08 03:51:59;;;;;;;13.95;8.07;;;;;;;;;;4897520;29;20108;-67
2022/03/08 03:54:27;;;;;;;13.80;8.30;;;;;;;;;;4912722;29;20060;-67
2022/03/08 03:56:54;;;;;;;18.65;9.27;;;;;;;;;;4915080;29;20052;-68
2022/03/08 03:59:21;;;;;;;14.75;8.48;;;;;;;;;;4918619;29;20051;-67
2022/03/08 04:01:48;;;;;;;25.33;9.20;;;;;;;;;;4913478;29;20051;-67
2022/03/08 04:04:15;;;;;;;15.25;8.77;;;;;;;;;;4917842;29;20064;-67
2022/03/08 04:06:44;;;;;;;15.13;9.23;;;;;;;;;;4917802;29;20047;-67
2022/03/08 04:09:13;;;;;;;17.90;9.35;;;;;;;;;;4913195;29;20066;-67
2022/03/08 04:11:40;;;;;;;16.90;9.45;;;;;;;;;;4900412;29;20180;-67
2022/03/08 04:14:07;;;;;;;17.25;9.15;;;;;;;;;;4915430;29;20050;-67
2022/03/08 04:16:34;;;;;;;16.08;8.20;;;;;;;;;;4895147;29;20110;-67
2022/03/08 04:19:02;;;;;;;16.63;9.43;;;;;;;;;;4896537;29;20056;-67
2022/03/08 04:21:29;;;;;;;15.43;9.13;;;;;;;;;;4915141;29;20047;-67
2022/03/08 04:23:59;;;;;;;16.60;9.32;;;;;;;;;;4913082;29;20048;-67
2022/03/08 04:26:26;;;;;;;19.25;10.52;;;;;;;;;;4915855;29;20064;-67
2022/03/08 04:28:53;;;;;;;19.23;10.38;;;;;;;;;;4916850;29;20529;-67
2022/03/08 04:31:20;;;;;;;17.85;9.82;;;;;;;;;;4911809;29;20104;-67
2022/03/08 04:33:47;;;;;;;17.42;10.50;;;;;;;;;;4901052;29;20507;-67
2022/03/08 04:36:15;;;;;;;19.67;10.32;;;;;;;;;;4896569;29;20192;-67
2022/03/08 04:38:42;;;;;;;21.25;11.02;;;;;;;;;;4898364;29;20503;-67
2022/03/08 04:41:11;;;;;;;15.07;9.77;;;;;;;;;;4901126;29;20047;-67
2022/03/08 04:43:38;;;;;;;15.45;9.95;;;;;;;;;;4917225;29;20564;-67
2022/03/08 04:46:05;;;;;;;19.10;11.13;;;;;;;;;;4903263;29;20056;-67
2022/03/08 04:48:32;;;;;;;18.65;10.73;;;;;;;;;;4905810;29;20399;-67
2022/03/08 04:51:00;;;;;;;19.00;11.15;;;;;;;;;;4899645;29;20180;-67
2022/03/08 04:53:27;;;;;;;19.30;10.35;;;;;;;;;;4900209;29;20064;-67
2022/03/08 04:55:54;;;;;;;16.10;10.18;;;;;;;;;;4899810;29;20672;-67
2022/03/08 04:58:23;;;;;;;19.10;10.30;;;;;;;;;;4899877;29;20055;-68
2022/03/08 05:00:50;;;;;;;18.77;11.07;;;;;;;;;;4900104;29;20058;-67
2022/03/08 05:03:17;;;;;;;22.88;11.57;;;;;;;;;;4902876;29;20056;-67
2022/03/08 05:05:44;;;;;;;20.23;11.70;;;;;;;;;;4916955;29;20056;-67
2022/03/08 05:08:11;;;;;;;21.10;12.75;;;;;;;;;;4897318;29;20056;-66
2022/03/08 05:10:39;;;;;;;20.13;11.32;;;;;;;;;;4900903;29;20063;-66
2022/03/08 05:13:06;;;;;;;20.77;11.10;;;;;;;;;;4899736;29;20063;-66
2022/03/08 05:15:36;;;;;;;23.20;12.70;;;;;;;;;;4920128;29;20047;-66
2022/03/08 05:18:03;;;;;;;26.08;14.73;;;;;;;;;;4896852;29;20056;-67
2022/03/08 05:20:30;;;;;;;20.92;13.05;;;;;;;;;;4898367;29;20086;-67
2022/03/08 05:23:00;;;;;;;21.92;12.35;;;;;;;;;;4895172;29;20495;-66
2022/03/08 05:25:28;;;;;;;17.88;11.85;;;;;;;;;;4898627;29;20147;-66
2022/03/08 05:27:55;;;;;;;16.80;10.35;;;;;;;;;;4898489;29;20127;-68
2022/03/08 05:30:22;;;;;;;23.25;10.95;;;;;;;;;;4896280;29;20079;-68
2022/03/08 05:32:52;;;;;;;18.67;10.75;;;;;;;;;;4921962;29;20062;-68
2022/03/08 05:35:19;;;;;;;23.60;11.20;;;;;;;;;;4901784;29;20111;-68
2022/03/08 05:37:47;;;;;;;19.85;11.82;;;;;;;;;;4925370;29;20062;-68
2022/03/08 05:40:14;;;;;;;18.35;11.07;;;;;;;;;;4896258;29;20048;-68
2022/03/08 05:42:43;;;;;;;20.98;11.32;;;;;;;;;;4918282;29;20080;-68
2022/03/08 05:45:11;;;;;;;19.00;11.38;;;;;;;;;;4901497;29;20067;-68
2022/03/08 05:47:40;;;;;;;24.88;13.13;;;;;;;;;;4903076;29;20715;-69
2022/03/08 05:50:10;;;;;;;30.38;16.58;;;;;;;;;;4894937;29;20096;-69
2022/03/08 05:52:37;;;;;;;28.05;14.95;;;;;;;;;;4904201;29;20107;-69
2022/03/08 05:55:04;;;;;;;22.55;12.50;;;;;;;;;;4901282;29;20051;-69
2022/03/08 05:57:32;;;;;;;23.67;12.57;;;;;;;;;;4898805;29;20088;-69
2022/03/08 05:59:59;;;;;;;19.35;11.20;;;;;;;;;;4924301;29;20048;-69
2022/03/08 06:02:26;;;;;;;18.85;11.52;;;;;;;;;;4899266;29;20062;-69
2022/03/08 06:04:53;;;;;;;22.23;12.30;;;;;;;;;;4923167;29;20071;-69
2022/03/08 06:07:22;;;;;;;18.27;11.30;;;;;;;;;;4918326;29;20150;-69
2022/03/08 06:09:49;;;;;;;27.70;14.15;;;;;;;;;;4917061;29;20112;-69
2022/03/08 06:12:17;;;;;;;19.33;12.23;;;;;;;;;;4899713;29;20059;-69
2022/03/08 06:14:44;;;;;;;22.55;13.32;;;;;;;;;;4903854;29;20420;-69
2022/03/08 06:17:11;;;;;;;20.45;12.38;;;;;;;;;;4919292;29;20068;-69
2022/03/08 06:19:39;;;;;;;22.33;11.77;;;;;;;;;;4924848;29;20067;-69
2022/03/08 06:22:06;;;;;;;20.20;12.05;;;;;;;;;;4922347;29;20056;-69
2022/03/08 06:24:35;;;;;;;25.17;12.02;;;;;;;;;;4903618;29;20136;-69
2022/03/08 06:27:02;;;;;;;22.50;13.35;;;;;;;;;;4903339;29;20432;-69
2022/03/08 06:29:29;;;;;;;22.20;12.27;;;;;;;;;;4902024;29;20067;-69
2022/03/08 06:31:56;;;;;;;25.10;12.88;;;;;;;;;;4900095;29;20518;-69
2022/03/08 06:34:24;;;;;;;27.88;12.80;;;;;;;;;;4921539;29;21421;-69
2022/03/08 06:36:51;;;;;;;20.02;12.02;;;;;;;;;;4902693;29;20111;-67
2022/03/08 06:39:18;;;;;;;22.98;12.77;;;;;;;;;;4899121;29;20071;-66
2022/03/08 06:41:47;;;;;;;26.25;14.02;;;;;;;;;;4902072;29;20068;-66
2022/03/08 06:44:14;;;;;;;21.83;13.40;;;;;;;;;;4899779;29;20052;-66
2022/03/08 06:46:44;;;;;;;21.27;12.35;;;;;;;;;;4898859;29;20052;-66
2022/03/08 06:49:11;;;;;;;21.95;12.70;;;;;;;;;;4918628;29;20052;-66
2022/03/08 06:51:39;;;;;;;21.40;12.40;;;;;;;;;;4904470;29;20120;-67
2022/03/08 06:54:06;;;;;;;21.50;13.18;;;;;;;;;;4900108;29;20056;-66
2022/03/08 06:56:34;;;;;;;21.25;12.82;;;;;;;;;;4922660;29;20447;-68
2022/03/08 06:59:03;;;;;;;21.60;12.50;;;;;;;;;;4919312;29;20139;-68
2022/03/08 07:01:30;;;;;;;28.95;15.32;;;;;;;;;;4920307;29;20544;-69
2022/03/08 07:03:57;;;;;;;21.48;13.13;;;;;;;;;;4903990;29;20058;-69
2022/03/08 07:06:25;;;;;;;19.13;12.50;;;;;;;;;;4900380;29;20506;-70
2022/03/08 07:08:53;;;;;;;20.92;12.85;;;;;;;;;;4916649;29;20062;-69
2022/03/08 07:11:21;;;;;;;29.73;13.85;;;;;;;;;;4903580;29;20064;-69
2022/03/08 07:13:48;;;;;;;26.13;13.23;;;;;;;;;;4900053;29;20059;-70
2022/03/08 07:16:16;;;;;;;22.10;13.00;;;;;;;;;;4898933;29;20485;-69
2022/03/08 07:18:44;;;;;;;21.25;12.93;;;;;;;;;;4900186;29;20058;-67
2022/03/08 07:21:11;;;;;;;21.02;12.35;;;;;;;;;;4898550;29;20104;-67
2022/03/08 07:23:39;;;;;;;24.25;13.35;;;;;;;;;;4917918;29;20491;-66
2022/03/08 07:26:06;;;;;;;21.23;12.82;;;;;;;;;;4918713;29;20071;-67
2022/03/08 07:28:34;;;;;;;20.73;12.93;;;;;;;;;;4901993;29;20426;-67
2022/03/08 07:31:02;;;;;;;21.42;12.95;;;;;;;;;;4905304;29;20067;-66
2022/03/08 07:33:31;;;;;;;20.15;12.38;;;;;;;;;;4918560;29;20058;-66
2022/03/08 07:35:59;;;;;;;23.38;11.50;;;;;;;;;;4903751;29;20063;-67
2022/03/08 07:38:27;;;;;;;24.58;12.18;;;;;;;;;;4895452;29;20068;-66
2022/03/08 07:40:54;;;;;;;17.98;11.68;;;;;;;;;;4906226;29;20050;-66
2022/03/08 07:43:21;;;;;;;21.38;11.45;;;;;;;;;;4894833;29;20082;-66
2022/03/08 07:45:49;;;;;;;20.45;11.73;;;;;;;;;;4905951;29;20515;-66
2022/03/08 07:48:17;;;;;;;19.75;11.93;;;;;;;;;;4904208;29;20059;-68
2022/03/08 07:50:46;;;;;;;19.35;11.23;;;;;;;;;;4918829;29;20074;-68
2022/03/08 07:53:13;;;;;;;16.90;10.65;;;;;;;;;;4909747;29;20055;-68
2022/03/08 07:55:40;;;;;;;17.02;10.88;;;;;;;;;;4919525;29;20116;-69
2022/03/08 07:58:11;;;;;;;18.38;10.63;;;;;;;;;;4900661;29;20304;-69
2022/03/08 08:00:39;;;;;;;18.50;11.13;;;;;;;;;;4913553;29;20120;-69
2022/03/08 08:03:07;;;;;;;16.50;10.68;;;;;;;;;;4894445;29;20071;-69
2022/03/08 08:05:34;;;;;;;18.20;10.95;;;;;;;;;;4911924;29;20107;-69
2022/03/08 08:08:03;;;;;;;16.27;10.38;;;;;;;;;;4897763;29;20056;-69
2022/03/08 08:10:30;;;;;;;15.13;10.35;;;;;;;;;;4911366;29;20721;-69
2022/03/08 08:12:58;;;;;;;17.02;9.45;;;;;;;;;;4918531;29;20060;-68
2022/03/08 08:15:25;;;;;;;16.20;9.32;;;;;;;;;;4908127;29;20063;-66
2022/03/08 08:17:53;;;;;;;19.98;10.23;;;;;;;;;;4915438;29;20051;-67
2022/03/08 08:20:21;;;;;;;17.65;10.32;;;;;;;;;;4914156;29;20060;-67
2022/03/08 08:22:48;;;;;;;17.58;9.80;;;;;;;;;;4907715;29;20098;-67
2022/03/08 08:25:17;;;;;;;14.95;9.27;;;;;;;;;;4900671;29;20063;-67
2022/03/08 08:27:44;;;;;;;16.98;10.10;;;;;;;;;;4901321;29;20047;-67
2022/03/08 08:30:12;;;;;;;13.20;9.13;;;;;;;;;;4899405;29;20056;-67
2022/03/08 08:32:39;;;;;;;14.13;9.25;;;;;;;;;;4921110;29;20105;-67
2022/03/08 08:35:07;;;;;;;12.88;8.25;;;;;;;;;;4921362;29;20750;-67
2022/03/08 08:37:34;;;;;;;16.35;9.32;;;;;;;;;;4904313;29;20135;-67
2022/03/08 08:40:01;;;;;;;14.80;8.50;;;;;;;;;;4919057;29;20947;-67
2022/03/08 08:42:30;;;;;;;12.25;8.30;;;;;;;;;;4917868;29;20071;-67
2022/03/08 08:44:57;;;;;;;11.68;8.05;;;;;;;;;;4906310;29;20051;-67
2022/03/08 08:47:24;;;;;;;13.60;8.35;;;;;;;;;;4915147;29;20091;-67
2022/03/08 08:49:52;;;;;;;13.60;7.95;;;;;;;;;;4897049;29;20100;-67
2022/03/08 08:52:19;;;;;;;10.82;7.95;;;;;;;;;;4901173;29;20140;-67
2022/03/08 08:54:47;;;;;;;13.20;8.18;;;;;;;;;;4901186;29;20117;-67
2022/03/08 08:57:14;;;;;;;12.75;7.43;;;;;;;;;;4902693;29;20514;-67
2022/03/08 08:59:43;;;;;;;10.48;7.78;;;;;;;;;;4899084;29;20110;-66
2022/03/08 09:02:10;;;;;;;12.45;7.50;;;;;;;;;;4897396;29;20108;-69
2022/03/08 09:04:37;;;;;;;10.23;7.20;;;;;;;;;;4913718;29;20407;-69
2022/03/08 09:07:05;;;;;;;10.38;6.93;;;;;;;;;;4903035;29;20070;-69
2022/03/08 09:09:33;;;;;;;9.85;6.28;;;;;;;;;;4900026;29;20064;-69
2022/03/08 09:12:00;;;;;;;13.07;6.63;;;;;;;;;;4901425;29;20063;-69
2022/03/08 09:14:27;;;;;;;10.02;6.47;;;;;;;;;;4900834;29;20051;-69
2022/03/08 09:16:56;;;;;;;12.15;7.00;;;;;;;;;;4893678;29;20062;-67
2022/03/08 09:19:23;;;;;;;10.15;6.10;;;;;;;;;;4907212;29;20052;-67
2022/03/08 09:21:51;;;;;;;9.25;6.55;;;;;;;;;;4919579;29;20059;-67
2022/03/08 09:24:18;;;;;;;11.27;6.18;;;;;;;;;;4918718;29;20070;-67
2022/03/08 09:26:45;;;;;;;10.10;5.82;;;;;;;;;;4920972;29;20124;-67
2022/03/08 09:29:12;;;;;;;10.00;6.20;;;;;;;;;;4900500;29;20055;-67
2022/03/08 09:31:40;;;;;;;10.25;6.43;;;;;;;;;;4899248;29;20067;-67
2022/03/08 09:34:08;;;;;;;12.07;6.85;;;;;;;;;;4900456;29;20093;-67
2022/03/08 09:36:36;;;;;;;8.35;5.53;;;;;;;;;;4899042;29;20482;-67
2022/03/08 09:39:04;;;;;;;11.38;5.90;;;;;;;;;;4898422;29;20056;-67
2022/03/08 09:41:31;;;;;;;10.05;6.10;;;;;;;;;;4916425;29;20066;-67
2022/03/08 09:44:00;;;;;;;11.07;5.85;;;;;;;;;;4901734;29;20051;-67
2022/03/08 09:46:27;;;;;;;11.38;5.55;;;;;;;;;;4925769;29;20487;-67
2022/03/08 09:48:55;;;;;;;11.90;5.40;;;;;;;;;;4925599;29;20059;-67
2022/03/08 09:51:23;;;;;;;6.72;4.88;;;;;;;;;;4902748;29;20060;-66
2022/03/08 09:53:53;;;;;;;9.35;5.15;;;;;;;;;;4899157;29;20116;-67
2022/03/08 09:56:20;;;;;;;6.82;5.00;;;;;;;;;;4897665;29;20090;-67
2022/03/08 09:58:48;;;;;;;10.20;5.05;;;;;;;;;;4897861;29;20056;-67
2022/03/08 10:01:15;;;;;;;8.32;4.80;;;;;;;;;;4901053;29;20511;-67
2022/03/08 10:03:46;;;;;;;7.28;5.20;;;;;;;;;;4901218;29;20058;-67
2022/03/08 10:06:13;;;;;;;12.05;5.53;;;;;;;;;;4914815;29;20626;-67
2022/03/08 10:08:42;;;;;;;9.23;4.70;;;;;;;;;;4902663;29;20055;-67
2022/03/08 10:11:12;;;;;;;8.65;4.82;;;;;;;;;;4917651;29;20547;-67
2022/03/08 10:13:42;;;;;;;7.03;4.65;;;;;;;;;;4914909;29;20043;-67
2022/03/08 10:16:13;;;;;;;9.52;5.65;;;;;;;;;;4902884;29;20048;-67
2022/03/08 10:18:42;;;;;;;11.40;5.28;;;;;;;;;;4900359;29;20052;-67
2022/03/08 10:21:27;;;;;;;8.48;4.85;;;;;;;;;;4900276;29;20056;-67
2022/03/08 10:23:56;;;;;;;7.10;4.95;;;;;;;;;;4896352;29;20502;-67
2022/03/08 10:26:23;;;;;;;7.10;4.82;;;;;;;;;;4899021;29;20051;-67
2022/03/08 10:28:51;;;;;;;9.50;4.43;;;;;;;;;;4918960;29;20074;-67
2022/03/08 10:31:19;;;;;;;10.00;5.28;;;;;;;;;;4912268;29;20051;-67
2022/03/08 10:33:47;;;;;;;10.30;4.50;;;;;;;;;;4919503;29;20059;-67
2022/03/08 10:36:15;;;;;;;8.45;4.10;;;;;;;;;;4912129;29;20499;-67
2022/03/08 10:38:43;;;;;;;6.90;4.03;;;;;;;;;;4901126;29;20054;-67
2022/03/08 10:41:21;;;;;;;6.20;4.38;;;;;;;;;;4917023;29;20052;-67
2022/03/08 10:43:49;;;;;;;7.10;4.75;;;;;;;;;;4898695;29;20060;-67
2022/03/08 10:46:20;;;;;;;9.18;4.40;;;;;;;;;;4900705;29;20716;-71
2022/03/08 10:48:48;;;;;;;6.22;4.00;;;;;;;;;;4898121;29;20155;-67
2022/03/08 10:51:16;;;;;;;8.88;4.63;;;;;;;;;;4894309;29;20052;-67
2022/03/08 10:53:43;;;;;;;5.45;4.15;;;;;;;;;;4899511;29;20098;-67
2022/03/08 10:56:11;;;;;;;6.00;4.25;;;;;;;;;;4904702;29;20455;-67
2022/03/08 10:58:50;;;;;;;9.30;4.38;;;;;;;;;;4902389;29;20048;-67
2022/03/08 11:01:17;;;;;;;7.85;4.03;;;;;;;;;;4918260;29;20055;-67
2022/03/08 11:03:55;;;;;;;7.45;4.55;;;;;;;;;;4917809;29;20060;-67
2022/03/08 11:06:23;;;;;;;6.82;4.65;;;;;;;;;;4904152;29;20554;-67
2022/03/08 11:08:51;;;;;;;7.28;4.28;;;;;;;;;;4903043;29;20137;-67
2022/03/08 11:11:20;;;;;;;5.88;4.28;;;;;;;;;;4902774;29;20108;-67
2022/03/08 11:13:52;;;;;;;6.90;4.20;;;;;;;;;;4896959;29;20063;-67
2022/03/08 11:16:19;;;;;;;6.90;4.40;;;;;;;;;;4918087;29;20043;-67
2022/03/08 11:18:49;;;;;;;6.07;4.13;;;;;;;;;;4923185;29;20120;-69
2022/03/08 11:21:17;;;;;;;7.55;3.90;;;;;;;;;;4906709;29;20058;-70
2022/03/08 11:23:45;;;;;;;6.55;3.90;;;;;;;;;;4925368;29;20119;-69
2022/03/08 11:26:13;;;;;;;6.82;3.90;;;;;;;;;;4900072;29;20056;-69
2022/03/08 11:28:42;;;;;;;6.53;4.30;;;;;;;;;;4901226;29;20414;-69
2022/03/08 11:31:11;;;;;;;6.55;3.88;;;;;;;;;;4913916;29;20048;-69
2022/03/08 11:33:41;;;;;;;7.70;4.25;;;;;;;;;;4900467;29;20052;-69
2022/03/08 11:36:15;;;;;;;6.65;3.92;;;;;;;;;;4897541;29;20075;-69
2022/03/08 11:38:42;;;;;;;7.75;4.38;;;;;;;;;;4917089;29;20071;-69
2022/03/08 11:41:09;;;;;;;7.05;4.20;;;;;;;;;;4915396;29;20048;-69
2022/03/08 11:43:37;;;;;;;9.27;4.00;;;;;;;;;;4898582;29;20104;-69
2022/03/08 11:46:13;;;;;;;4.97;3.70;;;;;;;;;;4898995;29;20052;-69
2022/03/08 11:48:50;;;;;;;5.13;3.85;;;;;;;;;;4897208;29;20570;-70
2022/03/08 11:51:18;;;;;;;7.85;3.92;;;;;;;;;;4916742;29;20072;-70
2022/03/08 11:53:47;;;;;;;7.50;4.18;;;;;;;;;;4912994;29;20055;-68
2022/03/08 11:56:17;;;;;;;6.40;4.10;;;;;;;;;;4915024;29;20048;-67
2022/03/08 11:58:47;;;;;;;5.13;3.75;;;;;;;;;;4902830;29;20454;-67
2022/03/08 12:01:26;;;;;;;7.60;3.60;;;;;;;;;;4912464;29;20044;-67
2022/03/08 12:03:57;;;;;;;5.25;3.80;;;;;;;;;;4900020;29;20071;-67
2022/03/08 12:06:31;;;;;;;4.25;3.35;;;;;;;;;;4915497;29;20159;-67
2022/03/08 12:09:10;;;;;;;5.88;3.90;;;;;;;;;;4898843;29;20048;-67
2022/03/08 12:11:52;;;;;;;7.03;4.00;;;;;;;;;;4897823;29;20142;-68
2022/03/08 12:14:21;;;;;;;7.45;3.75;;;;;;;;;;4901678;29;21015;-68
2022/03/08 12:16:50;;;;;;;6.30;4.03;;;;;;;;;;4916145;29;20067;-68
2022/03/08 12:19:22;;;;;;;4.82;3.38;;;;;;;;;;4914084;29;20052;-68
2022/03/08 12:21:55;;;;;;;7.78;4.07;;;;;;;;;;4896326;29;20056;-68
2022/03/08 12:24:23;;;;;;;7.53;3.65;;;;;;;;;;4900206;29;20467;-68
2022/03/08 12:26:54;;;;;;;6.20;4.07;;;;;;;;;;4897402;29;20071;-68
2022/03/08 12:29:23;;;;;;;6.82;4.10;;;;;;;;;;4899052;29;20059;-68
2022/03/08 12:32:08;;;;;;;5.97;4.10;;;;;;;;;;4915247;29;20112;-68
2022/03/08 12:34:39;;;;;;;5.53;3.80;;;;;;;;;;4914377;29;20052;-68
2022/03/08 12:37:06;;;;;;;5.28;3.85;;;;;;;;;;4913292;29;20146;-69
2022/03/08 12:39:48;;;;;;;4.82;3.78;;;;;;;;;;4912040;29;20146;-68
2022/03/08 12:42:19;;;;;;;4.32;3.35;;;;;;;;;;4913696;29;20059;-68
2022/03/08 12:44:50;;;;;;;4.88;3.40;;;;;;;;;;4898650;29;20063;-68
2022/03/08 12:47:18;;;;;;;6.97;3.35;;;;;;;;;;4915303;29;20165;-68
2022/03/08 12:49:47;;;;;;;4.88;3.72;;;;;;;;;;4894921;29;20052;-67
2022/03/08 12:52:14;;;;;;;7.93;4.10;;;;;;;;;;4898016;29;20091;-67
2022/03/08 12:54:43;;;;;;;3.83;3.42;;;;;;;;;;4901535;29;20091;-67
2022/03/08 12:57:12;;;;;;;6.63;3.85;;;;;;;;;;4897454;29;20139;-67
2022/03/08 12:59:46;;;;;;;7.32;4.15;;;;;;;;;;4895705;29;20470;-68
2022/03/08 13:02:14;;;;;;;7.00;3.72;;;;;;;;;;4920137;29;20510;-68
2022/03/08 13:04:43;;;;;;;5.93;3.90;;;;;;;;;;4918936;29;20056;-68
2022/03/08 13:07:12;;;;;;;4.28;3.58;;;;;;;;;;4897532;29;20056;-68
2022/03/08 13:09:49;;;;;;;5.50;3.30;;;;;;;;;;4902192;29;20055;-68
2022/03/08 13:12:17;;;;;;;11.52;3.63;;;;;;;;;;4902470;29;20066;-68
2022/03/08 13:14:45;;;;;;;4.85;3.92;;;;;;;;;;4899746;29;20055;-68
2022/03/08 13:17:12;;;;;;;6.07;3.63;;;;;;;;;;4900306;29;20130;-68
2022/03/08 13:19:39;;;;;;;4.95;3.38;;;;;;;;;;4901507;29;20055;-68
2022/03/08 13:22:07;;;;;;;4.28;3.25;;;;;;;;;;4901835;29;20060;-68
2022/03/08 13:24:35;;;;;;;7.07;3.85;;;;;;;;;;4901086;29;20498;-68
2022/03/08 13:27:03;;;;;;;6.57;3.30;;;;;;;;;;4899108;29;20146;-68
2022/03/08 13:29:30;;;;;;;4.05;3.03;;;;;;;;;;4920019;29;20062;-68
2022/03/08 13:31:58;;;;;;;4.38;3.30;;;;;;;;;;4903687;29;20052;-68
2022/03/08 13:34:26;;;;;;;4.50;3.22;;;;;;;;;;4900873;29;20048;-68
2022/03/08 13:36:56;;;;;;;4.30;3.10;;;;;;;;;;4899922;29;20348;-68
2022/03/08 13:39:24;;;;;;;7.93;3.50;;;;;;;;;;4916435;29;20055;-68
2022/03/08 13:41:54;;;;;;;4.57;3.17;;;;;;;;;;4899670;29;20055;-68
2022/03/08 13:44:22;;;;;;;3.88;3.10;;;;;;;;;;4897763;29;20067;-69
2022/03/08 13:46:49;;;;;;;4.95;3.00;;;;;;;;;;4896795;29;20060;-69
2022/03/08 13:49:18;;;;;;;5.43;2.90;;;;;;;;;;4904349;29;20052;-68
2022/03/08 13:51:46;;;;;;;6.18;2.80;;;;;;;;;;4907076;29;20105;-69
2022/03/08 13:54:13;;;;;;;5.85;3.00;;;;;;;;;;4903227;29;20060;-69
2022/03/08 13:56:44;;;;;;;3.83;2.80;;;;;;;;;;4905235;29;20063;-68
2022/03/08 13:59:25;;;;;;;7.07;3.05;;;;;;;;;;4904241;29;20132;-68
2022/03/08 14:01:59;;;;;;;4.70;2.92;;;;;;;;;;4909974;29;20082;-69
2022/03/08 14:04:26;;;;;;;5.50;2.50;;;;;;;;;;4917640;29;20052;-69
2022/03/08 14:06:54;;;;;;;4.07;2.70;;;;;;;;;;4897567;29;20479;-68
2022/03/08 14:09:21;;;;;;;5.35;2.88;;;;;;;;;;4917132;29;20047;-69
2022/03/08 14:11:55;;;;;;;4.88;2.85;;;;;;;;;;4896815;29;20052;-68
2022/03/08 14:14:25;;;;;;;3.30;2.58;;;;;;;;;;4917303;29;20458;-69
2022/03/08 14:16:52;;;;;;;5.57;2.90;;;;;;;;;;4900401;29;20590;-69
2022/03/08 14:19:22;;;;;;;5.97;2.80;;;;;;;;;;4916501;29;20121;-68
2022/03/08 14:21:50;;;;;;;6.68;2.60;;;;;;;;;;4917274;29;20529;-69
2022/03/08 14:24:18;;;;;;;3.45;2.53;;;;;;;;;;4918451;29;20116;-68
2022/03/08 14:26:59;;;;;;;5.28;2.80;;;;;;;;;;4899898;29;20472;-69
2022/03/08 14:29:28;;;;;;;7.40;2.90;;;;;;;;;;4913596;29;20468;-69
2022/03/08 14:31:55;;;;;;;4.03;2.55;;;;;;;;;;4905298;29;20063;-68
2022/03/08 14:34:23;;;;;;;3.40;2.55;;;;;;;;;;4901057;29;20056;-69
2022/03/08 14:36:57;;;;;;;6.82;2.97;;;;;;;;;;4915168;29;20418;-68